MMTO/TLC METAR and TAF weather

Enter ICAO airport designator
Station Type Date Time Source
MMTO METAR 2020/06/05 11:47 UTC NOAA

MMTO 051147Z 28004KT 5SM FEW200 10/07 A3030 RMK SLP/// 5//// 9// 8/001 AC HZY


Station Type Date Time Source
MMTO Decoded METAR 2020/06/05 11:47 UTC NOAA

Toluca / Jose Maria , Mexico (MMTO) 19-21N 099-34W
Jun 05, 2020 - 07:47 AM EDT / 2020.06.05 1147 UTC
Wind: from the W (280 degrees) at 5 MPH (4 KT):0
Visibility: 5 mile(s):0
Sky conditions: mostly clear
Temperature: 50 F (10 C)
Dew Point: 44 F (7 C)
Relative Humidity: 81%
Pressure (altimeter): 30.3 in. Hg (1026 hPa)
ob: MMTO 051147Z 28004KT 5SM FEW200 10/07 A3030 RMK SLP/// 5//// 9// 8/001 AC HZY
cycle: 12

Station Type Date Time Source
MMTO TAF 2020/06/05 12:08 UTC NOAA

TAF MMTO 051000Z 0512/0618 00000KT P6SM SCT020 TX26/0521Z TN10/0512Z
TEMPO 0512/0516 4SM HZ BKN015
FM051800 03012KT P6SM SCT015
BECMG 0602/0603 03006KT
TEMPO 0612/0616 5SM HZ BKN015

Example: see airport list